Kinder, Louisiana
Current Conditions -  °F | °C
As of 8:35 AM on Sunday 23 Nov 2014 (Local Time) from K3R7 Reporting Station
Overcast Overcast  
Wind Chill: 62°   Ceiling: 3100
Heat Index: 62°   Visibility: 10mi
Dew Point: 59°   Wind: 7mph
Humidity: 90%   Direction: 210°SSW
Pressure: 29.66"   Gusts: NA
Location:  30.49°N, 92.85°W
Report Text: K3R7 231435Z AUTO 21006KT 10SM SCT024 OVC031 17/15 A2966 RMK AO2 T01670151
Loading
Personal Weather Stations






























Interactive Weather Map New forecast layout! Learn more

10-Day Weather Forecast

Advertisements
Track Severe Weather on mobile